Time,TemperatureF,DewpointF,PressureIn,WindDirection,WindDirectionDegrees,WindSpeedMPH,WindSpeedGustMPH,Humidity,HourlyPrecipIn,Conditions,Clouds,dailyrainin,SoftwareType,DateUTC
2013-02-03 00:03:00,11.0,7.0,-100.00,NNW,330,2.0,3.0,83,-99.99,,,-99.99,,2013-02-03 05:03:00,
2013-02-03 00:12:00,11.0,7.0,-100.00,NW,320,1.0,2.0,83,-99.99,,,-99.99,,2013-02-03 05:12:00,
2013-02-03 00:22:00,11.0,8.0,-100.00,NNW,335,1.0,1.0,84,-99.99,,,-99.99,,2013-02-03 05:22:00,
2013-02-03 00:32:00,11.0,8.0,-100.00,NW,325,1.0,2.0,84,-99.99,,,-99.99,,2013-02-03 05:32:00,
2013-02-03 00:42:00,12.0,8.0,-100.00,NNW,340,1.0,3.0,84,-99.99,,,-99.99,,2013-02-03 05:42:00,
2013-02-03 00:52:00,12.0,8.0,-100.00,NNW,340,1.0,2.0,84,-99.99,,,-99.99,,2013-02-03 05:52:00,
2013-02-03 01:02:00,12.0,8.0,-100.00,NNW,340,1.0,2.0,84,-99.99,,,-99.99,,2013-02-03 06:02:00,
2013-02-03 01:11:00,11.0,7.0,-100.00,NNW,340,1.0,1.0,84,-99.99,,,-99.99,,2013-02-03 06:11:00,
2013-02-03 01:21:00,10.0,6.0,-100.00,NW,320,1.0,2.0,84,-99.99,,,-99.99,,2013-02-03 06:21:00,
2013-02-03 01:32:00,9.0,6.0,-100.00,NW,310,2.0,3.0,84,-99.99,,,-99.99,,2013-02-03 06:32:00,
2013-02-03 01:42:00,9.0,6.0,-100.00,NW,310,2.0,2.0,85,-99.99,,,-99.99,,2013-02-03 06:42:00,
2013-02-03 01:52:00,9.0,6.0,-100.00,NNW,335,1.0,2.0,85,-99.99,,,-99.99,,2013-02-03 06:52:00,
2013-02-03 02:02:00,9.0,6.0,-100.00,NNW,345,1.0,2.0,86,-99.99,,,-99.99,,2013-02-03 07:02:00,
2013-02-03 02:11:00,10.0,6.0,-100.00,North,5,1.0,2.0,86,-99.99,,,-99.99,,2013-02-03 07:11:00,
2013-02-03 02:21:00,9.0,6.0,-100.00,North,350,1.0,1.0,86,-99.99,,,-99.99,,2013-02-03 07:21:00,
2013-02-03 02:32:00,9.0,6.0,-100.00,North,0,0.0,1.0,86,-99.99,,,-99.99,,2013-02-03 07:32:00,
2013-02-03 02:42:00,9.0,6.0,-100.00,NNE,20,0.0,0.0,87,-99.99,,,-99.99,,2013-02-03 07:42:00,
2013-02-03 02:52:00,9.0,6.0,-100.00,ENE,70,0.0,0.0,87,-99.99,,,-99.99,,2013-02-03 07:52:00,
2013-02-03 03:02:00,9.0,7.0,-100.00,East,80,1.0,2.0,87,-99.99,,,-99.99,,2013-02-03 08:02:00,
2013-02-03 03:11:00,10.0,7.0,-100.00,ESE,115,1.0,2.0,87,-99.99,,,-99.99,,2013-02-03 08:11:00,
2013-02-03 03:22:00,10.0,7.0,-100.00,ESE,115,1.0,1.0,87,-99.99,,,-99.99,,2013-02-03 08:22:00,
2013-02-03 03:32:00,10.0,7.0,-100.00,ESE,115,0.0,1.0,87,-99.99,,,-99.99,,2013-02-03 08:32:00,
2013-02-03 03:41:00,9.0,6.0,-100.00,SSE,150,0.0,1.0,87,-99.99,,,-99.99,,2013-02-03 08:41:00,
2013-02-03 03:52:00,8.0,5.0,-100.00,South,170,0.0,0.0,87,-99.99,,,-99.99,,2013-02-03 08:52:00,
2013-02-03 04:03:00,8.0,5.0,-100.00,SSE,165,0.0,0.0,87,-99.99,,,-99.99,,2013-02-03 09:03:00,
2013-02-03 04:11:00,8.0,5.0,-100.00,West,280,1.0,1.0,87,-99.99,,,-99.99,,2013-02-03 09:11:00,
2013-02-03 04:21:00,8.0,5.0,-100.00,WNW,295,1.0,1.0,87,-99.99,,,-99.99,,2013-02-03 09:21:00,
2013-02-03 04:32:00,8.0,6.0,-100.00,WNW,285,1.0,2.0,87,-99.99,,,-99.99,,2013-02-03 09:32:00,
2013-02-03 04:42:00,9.0,6.0,-100.00,WNW,300,1.0,1.0,87,-99.99,,,-99.99,,2013-02-03 09:42:00,
2013-02-03 04:51:00,9.0,6.0,-100.00,NW,320,1.0,2.0,87,-99.99,,,-99.99,,2013-02-03 09:51:00,
2013-02-03 05:01:00,9.0,6.0,-100.00,WNW,290,1.0,1.0,87,-99.99,,,-99.99,,2013-02-03 10:01:00,
2013-02-03 05:11:00,9.0,6.0,-100.00,WNW,295,1.0,1.0,87,-99.99,,,-99.99,,2013-02-03 10:11:00,
2013-02-03 05:21:00,10.0,7.0,-100.00,WNW,300,0.0,1.0,87,-99.99,,,-99.99,,2013-02-03 10:21:00,
2013-02-03 05:32:00,10.0,7.0,-100.00,West,260,1.0,1.0,87,-99.99,,,-99.99,,2013-02-03 10:32:00,
2013-02-03 05:42:00,10.0,7.0,-100.00,West,280,1.0,1.0,87,-99.99,,,-99.99,,2013-02-03 10:42:00,
2013-02-03 05:52:00,10.0,7.0,-100.00,NW,320,1.0,2.0,87,-99.99,,,-99.99,,2013-02-03 10:52:00,
2013-02-03 06:02:00,10.0,7.0,-100.00,NW,320,1.0,2.0,87,-99.99,,,-99.99,,2013-02-03 11:02:00,
2013-02-03 06:11:00,10.0,7.0,-100.00,WNW,300,1.0,2.0,87,-99.99,,,-99.99,,2013-02-03 11:11:00,
2013-02-03 06:22:00,10.0,7.0,-100.00,WNW,290,2.0,3.0,87,-99.99,,,-99.99,,2013-02-03 11:22:00,
2013-02-03 06:32:00,10.0,7.0,-100.00,WNW,290,2.0,3.0,87,-99.99,,,-99.99,,2013-02-03 11:32:00,
2013-02-03 06:42:00,10.0,7.0,-100.00,WNW,295,2.0,2.0,87,-99.99,,,-99.99,,2013-02-03 11:42:00,
2013-02-03 06:52:00,10.0,7.0,-100.00,NW,320,0.0,2.0,87,-99.99,,,-99.99,,2013-02-03 11:52:00,
2013-02-03 07:02:00,10.0,7.0,-100.00,NW,310,0.0,1.0,87,-99.99,,,-99.99,,2013-02-03 12:02:00,
2013-02-03 07:12:00,10.0,7.0,-100.00,WNW,295,1.0,1.0,87,-99.99,,,-99.99,,2013-02-03 12:12:00,
2013-02-03 07:22:00,10.0,7.0,-100.00,West,280,1.0,1.0,87,-99.99,,,-99.99,,2013-02-03 12:22:00,
2013-02-03 07:32:00,10.0,7.0,-100.00,West,265,1.0,1.0,87,-99.99,,,-99.99,,2013-02-03 12:32:00,
2013-02-03 07:42:00,10.0,8.0,-100.00,WSW,255,0.0,1.0,87,-99.99,,,-99.99,,2013-02-03 12:42:00,
2013-02-03 07:53:00,10.0,8.0,-100.00,WSW,255,0.0,1.0,87,-99.99,,,-99.99,,2013-02-03 12:53:00,
2013-02-03 08:03:00,10.0,8.0,-100.00,WSW,255,0.0,0.0,87,-99.99,,,-99.99,,2013-02-03 13:03:00,
2013-02-03 08:11:00,10.0,7.0,-100.00,SW,235,0.0,1.0,87,-99.99,,,-99.99,,2013-02-03 13:11:00,
2013-02-03 08:21:00,10.0,7.0,-100.00,WSW,240,0.0,1.0,87,-99.99,,,-99.99,,2013-02-03 13:21:00,
2013-02-03 08:32:00,10.0,7.0,-100.00,West,265,1.0,1.0,87,-99.99,,,-99.99,,2013-02-03 13:32:00,
2013-02-03 08:42:00,10.0,7.0,-100.00,West,270,1.0,1.0,87,-99.99,,,-99.99,,2013-02-03 13:42:00,
2013-02-03 08:52:00,10.0,7.0,-100.00,West,260,1.0,2.0,87,-99.99,,,-99.99,,2013-02-03 13:52:00,
2013-02-03 09:02:00,11.0,8.0,-100.00,West,260,1.0,2.0,87,-99.99,,,-99.99,,2013-02-03 14:02:00,
2013-02-03 09:11:00,11.0,8.0,-100.00,West,275,2.0,3.0,87,-99.99,,,-99.99,,2013-02-03 14:11:00,
2013-02-03 09:21:00,12.0,9.0,-100.00,West,275,3.0,4.0,87,-99.99,,,-99.99,,2013-02-03 14:21:00,
2013-02-03 09:32:00,12.0,9.0,-100.00,WSW,250,2.0,4.0,86,-99.99,,,-99.99,,2013-02-03 14:32:00,
2013-02-03 09:42:00,13.0,9.0,-100.00,West,265,3.0,4.0,85,-99.99,,,-99.99,,2013-02-03 14:42:00,
2013-02-03 09:52:00,14.0,10.0,-100.00,West,260,3.0,5.0,84,-99.99,,,-99.99,,2013-02-03 14:52:00,
2013-02-03 10:03:00,15.0,11.0,-100.00,WSW,255,2.0,4.0,84,-99.99,,,-99.99,,2013-02-03 15:03:00,
2013-02-03 10:11:00,15.0,11.0,-100.00,WSW,255,2.0,5.0,83,-99.99,,,-99.99,,2013-02-03 15:11:00,
2013-02-03 10:22:00,16.0,11.0,-100.00,WSW,250,4.0,6.0,82,-99.99,,,-99.99,,2013-02-03 15:22:00,
2013-02-03 10:33:00,16.0,11.0,-100.00,WSW,250,4.0,7.0,81,-99.99,,,-99.99,,2013-02-03 15:33:00,
2013-02-03 10:42:00,17.0,12.0,-100.00,West,260,4.0,7.0,79,-99.99,,,-99.99,,2013-02-03 15:42:00,
2013-02-03 10:51:00,18.0,12.0,-100.00,West,270,7.0,9.0,77,-99.99,,,-99.99,,2013-02-03 15:51:00,
2013-02-03 11:03:00,18.0,12.0,-100.00,West,275,9.0,14.0,76,-99.99,,,-99.99,,2013-02-03 16:03:00,
2013-02-03 11:11:00,19.0,12.0,-100.00,WSW,255,6.0,11.0,75,-99.99,,,-99.99,,2013-02-03 16:11:00,
2013-02-03 11:22:00,20.0,13.0,-100.00,West,270,6.0,11.0,74,-99.99,,,-99.99,,2013-02-03 16:22:00,
2013-02-03 11:33:00,20.0,12.0,-100.00,West,275,9.0,12.0,71,-99.99,,,-99.99,,2013-02-03 16:33:00,
2013-02-03 11:42:00,20.0,13.0,-100.00,West,265,7.0,12.0,70,-99.99,,,-99.99,,2013-02-03 16:42:00,
2013-02-03 11:52:00,21.0,13.0,-100.00,West,270,9.0,12.0,68,-99.99,,,-99.99,,2013-02-03 16:52:00,
2013-02-03 12:02:00,20.0,12.0,-100.00,West,260,11.0,15.0,68,-99.99,,,-99.99,,2013-02-03 17:02:00,
2013-02-03 12:11:00,19.0,11.0,-100.00,WNW,300,12.0,16.0,68,-99.99,,,-99.99,,2013-02-03 17:11:00,
2013-02-03 12:22:00,20.0,12.0,-100.00,West,265,9.0,14.0,68,-99.99,,,-99.99,,2013-02-03 17:22:00,
2013-02-03 12:32:00,22.0,12.0,-100.00,West,270,5.0,13.0,66,-99.99,,,-99.99,,2013-02-03 17:32:00,
2013-02-03 12:42:00,22.0,11.0,-100.00,West,275,10.0,14.0,64,-99.99,,,-99.99,,2013-02-03 17:42:00,
2013-02-03 12:52:00,21.0,11.0,-100.00,West,270,10.0,18.0,64,-99.99,,,-99.99,,2013-02-03 17:52:00,
2013-02-03 13:03:00,20.0,11.0,-100.00,West,275,11.0,17.0,65,-99.99,,,-99.99,,2013-02-03 18:03:00,
2013-02-03 13:12:00,20.0,11.0,-100.00,West,265,9.0,16.0,66,-99.99,,,-99.99,,2013-02-03 18:12:00,
2013-02-03 13:23:00,21.0,11.0,-100.00,West,265,9.0,15.0,66,-99.99,,,-99.99,,2013-02-03 18:23:00,
2013-02-03 13:33:00,21.0,12.0,-100.00,West,265,11.0,18.0,66,-99.99,,,-99.99,,2013-02-03 18:33:00,
2013-02-03 13:42:00,20.0,11.0,-100.00,West,270,12.0,17.0,66,-99.99,,,-99.99,,2013-02-03 18:42:00,
2013-02-03 13:51:00,21.0,12.0,-100.00,West,270,10.0,17.0,67,-99.99,,,-99.99,,2013-02-03 18:51:00,
2013-02-03 14:02:00,21.0,11.0,-100.00,West,265,10.0,16.0,67,-99.99,,,-99.99,,2013-02-03 19:02:00,
2013-02-03 14:11:00,20.0,12.0,-100.00,West,270,11.0,17.0,67,-99.99,,,-99.99,,2013-02-03 19:11:00,
2013-02-03 14:22:00,21.0,12.0,-100.00,West,260,10.0,17.0,67,-99.99,,,-99.99,,2013-02-03 19:22:00,
2013-02-03 14:32:00,22.0,12.0,-100.00,West,265,12.0,17.0,66,-99.99,,,-99.99,,2013-02-03 19:32:00,
2013-02-03 14:42:00,21.0,11.0,-100.00,West,275,10.0,17.0,66,-99.99,,,-99.99,,2013-02-03 19:42:00,
2013-02-03 14:51:00,21.0,11.0,-100.00,West,260,9.0,17.0,66,-99.99,,,-99.99,,2013-02-03 19:51:00,
2013-02-03 15:02:00,20.0,11.0,-100.00,West,265,12.0,17.0,67,-99.99,,,-99.99,,2013-02-03 20:02:00,
2013-02-03 15:12:00,21.0,12.0,-100.00,West,260,10.0,19.0,67,-99.99,,,-99.99,,2013-02-03 20:12:00,
2013-02-03 15:22:00,21.0,12.0,-100.00,WSW,245,9.0,17.0,67,-99.99,,,-99.99,,2013-02-03 20:22:00,
2013-02-03 15:33:00,21.0,12.0,-100.00,West,280,11.0,17.0,67,-99.99,,,-99.99,,2013-02-03 20:33:00,
2013-02-03 15:42:00,21.0,12.0,-100.00,WSW,250,8.0,18.0,68,-99.99,,,-99.99,,2013-02-03 20:42:00,
2013-02-03 15:52:00,21.0,12.0,-100.00,West,265,11.0,22.0,68,-99.99,,,-99.99,,2013-02-03 20:52:00,
2013-02-03 16:03:00,20.0,12.0,-100.00,West,265,9.0,19.0,69,-99.99,,,-99.99,,2013-02-03 21:03:00,
2013-02-03 16:11:00,20.0,12.0,-100.00,West,270,11.0,18.0,70,-99.99,,,-99.99,,2013-02-03 21:11:00,
2013-02-03 16:21:00,20.0,13.0,-100.00,West,270,9.0,18.0,72,-99.99,,,-99.99,,2013-02-03 21:21:00,
2013-02-03 16:33:00,20.0,14.0,-100.00,WSW,245,10.0,17.0,74,-99.99,,,-99.99,,2013-02-03 21:33:00,
2013-02-03 16:42:00,20.0,14.0,-100.00,West,260,12.0,19.0,76,-99.99,,,-99.99,,2013-02-03 21:42:00,
2013-02-03 16:51:00,20.0,14.0,-100.00,West,260,12.0,19.0,78,-99.99,,,-99.99,,2013-02-03 21:51:00,
2013-02-03 17:02:00,20.0,14.0,-100.00,WSW,250,11.0,18.0,78,-99.99,,,-99.99,,2013-02-03 22:02:00,
2013-02-03 17:11:00,20.0,14.0,-100.00,West,265,10.0,19.0,79,-99.99,,,-99.99,,2013-02-03 22:11:00,
2013-02-03 17:21:00,20.0,15.0,-100.00,WSW,255,9.0,19.0,80,-99.99,,,-99.99,,2013-02-03 22:21:00,
2013-02-03 17:32:00,20.0,15.0,-100.00,West,270,9.0,17.0,81,-99.99,,,-99.99,,2013-02-03 22:32:00,
2013-02-03 17:42:00,19.0,15.0,-100.00,West,270,11.0,19.0,82,-99.99,,,-99.99,,2013-02-03 22:42:00,
2013-02-03 17:51:00,19.0,15.0,-100.00,West,265,7.0,16.0,83,-99.99,,,-99.99,,2013-02-03 22:51:00,
2013-02-03 18:01:00,19.0,15.0,-100.00,WNW,285,11.0,18.0,84,-99.99,,,-99.99,,2013-02-03 23:01:00,
2013-02-03 18:12:00,19.0,15.0,-100.00,West,280,11.0,17.0,82,-99.99,,,-99.99,,2013-02-03 23:12:00,
2013-02-03 18:22:00,19.0,14.0,-100.00,WNW,290,10.0,16.0,79,-99.99,,,-99.99,,2013-02-03 23:22:00,
2013-02-03 18:32:00,19.0,14.0,-100.00,WNW,290,13.0,19.0,79,-99.99,,,-99.99,,2013-02-03 23:32:00,
2013-02-03 18:42:00,19.0,15.0,-100.00,West,280,12.0,19.0,82,-99.99,,,-99.99,,2013-02-03 23:42:00,
2013-02-03 18:52:00,19.0,15.0,-100.00,WNW,300,11.0,17.0,85,-99.99,,,-99.99,,2013-02-03 23:52:00,
2013-02-03 19:02:00,19.0,15.0,-100.00,WNW,285,11.0,16.0,85,-99.99,,,-99.99,,2013-02-04 00:02:00,
2013-02-03 19:11:00,19.0,15.0,-100.00,WNW,285,12.0,16.0,83,-99.99,,,-99.99,,2013-02-04 00:11:00,
2013-02-03 19:22:00,19.0,15.0,-100.00,WNW,285,11.0,17.0,82,-99.99,,,-99.99,,2013-02-04 00:22:00,
2013-02-03 19:32:00,19.0,15.0,-100.00,WNW,285,7.0,16.0,83,-99.99,,,-99.99,,2013-02-04 00:32:00,
2013-02-03 19:42:00,19.0,14.0,-100.00,West,265,7.0,12.0,82,-99.99,,,-99.99,,2013-02-04 00:42:00,
2013-02-03 19:51:00,19.0,14.0,-100.00,WNW,285,11.0,14.0,81,-99.99,,,-99.99,,2013-02-04 00:51:00,
2013-02-03 20:01:00,19.0,14.0,-100.00,West,280,11.0,15.0,81,-99.99,,,-99.99,,2013-02-04 01:01:00,
2013-02-03 20:11:00,19.0,14.0,-100.00,West,280,7.0,12.0,81,-99.99,,,-99.99,,2013-02-04 01:11:00,
2013-02-03 20:21:00,19.0,14.0,-100.00,West,270,5.0,11.0,81,-99.99,,,-99.99,,2013-02-04 01:21:00,
2013-02-03 20:32:00,19.0,14.0,-100.00,West,280,8.0,13.0,80,-99.99,,,-99.99,,2013-02-04 01:32:00,
2013-02-03 20:42:00,19.0,13.0,-100.00,West,265,6.0,11.0,79,-99.99,,,-99.99,,2013-02-04 01:42:00,
2013-02-03 20:52:00,19.0,13.0,-100.00,West,275,6.0,11.0,79,-99.99,,,-99.99,,2013-02-04 01:52:00,
2013-02-03 21:02:00,19.0,13.0,-100.00,West,275,6.0,11.0,79,-99.99,,,-99.99,,2013-02-04 02:02:00,
2013-02-03 21:11:00,19.0,13.0,-100.00,West,270,6.0,9.0,79,-99.99,,,-99.99,,2013-02-04 02:11:00,
2013-02-03 21:21:00,18.0,13.0,-100.00,West,265,4.0,9.0,79,-99.99,,,-99.99,,2013-02-04 02:21:00,
2013-02-03 21:32:00,19.0,13.0,-100.00,WSW,250,6.0,11.0,80,-99.99,,,-99.99,,2013-02-04 02:32:00,
2013-02-03 21:41:00,18.0,13.0,-100.00,WSW,250,4.0,9.0,81,-99.99,,,-99.99,,2013-02-04 02:41:00,
2013-02-03 21:52:00,18.0,14.0,-100.00,West,260,6.0,9.0,81,-99.99,,,-99.99,,2013-02-04 02:52:00,
2013-02-03 22:02:00,18.0,14.0,-100.00,WSW,250,5.0,10.0,82,-99.99,,,-99.99,,2013-02-04 03:02:00,
2013-02-03 22:11:00,18.0,14.0,-100.00,WSW,250,6.0,10.0,83,-99.99,,,-99.99,,2013-02-04 03:11:00,
2013-02-03 22:21:00,18.0,14.0,-100.00,WSW,245,4.0,7.0,84,-99.99,,,-99.99,,2013-02-04 03:21:00,
2013-02-03 22:32:00,18.0,14.0,-100.00,SW,230,4.0,7.0,84,-99.99,,,-99.99,,2013-02-04 03:32:00,
2013-02-03 22:42:00,18.0,14.0,-100.00,WSW,245,5.0,8.0,84,-99.99,,,-99.99,,2013-02-04 03:42:00,
2013-02-03 22:51:00,18.0,14.0,-100.00,WSW,240,4.0,7.0,84,-99.99,,,-99.99,,2013-02-04 03:51:00,
2013-02-03 23:01:00,18.0,14.0,-100.00,West,265,4.0,8.0,84,-99.99,,,-99.99,,2013-02-04 04:01:00,
2013-02-03 23:11:00,18.0,14.0,-100.00,WSW,250,4.0,9.0,84,-99.99,,,-99.99,,2013-02-04 04:11:00,
2013-02-03 23:21:00,18.0,14.0,-100.00,SW,235,4.0,7.0,83,-99.99,,,-99.99,,2013-02-04 04:21:00,
2013-02-03 23:32:00,18.0,13.0,-100.00,WSW,250,4.0,10.0,82,-99.99,,,-99.99,,2013-02-04 04:32:00,
2013-02-03 23:42:00,18.0,13.0,-100.00,WSW,240,6.0,11.0,81,-99.99,,,-99.99,,2013-02-04 04:42:00,
2013-02-03 23:52:00,18.0,13.0,-100.00,WSW,250,6.0,9.0,80,-99.99,,,-99.99,,2013-02-04 04:52:00,